Time;durP1;ratioP1;P1;durP2;ratioP2;P2;SDS_P1;SDS_P2;PMS_P1;PMS_P2;Temp;Humidity;BMP_temperature;BMP_pressure;BME280_temperature;BME280_humidity;BME280_pressure;Samples;Min_cycle;Max_cycle;Signal;HPM_P1;HPM_P2
2022/04/05 00:00:57;;;;;;;;;;;7.20;99.90;;;;;;5073348;28;19958;-76
2022/04/05 00:03:24;;;;;;;;;;;7.30;99.90;;;;;;5072648;28;19928;-74
2022/04/05 00:05:51;;;;;;;;;;;7.30;99.90;;;;;;5073568;28;19993;-78
2022/04/05 00:08:18;;;;;;;;;;;;;;;;;;5072701;28;19929;-77
2022/04/05 00:10:45;;;;;;;;;;;7.40;99.90;;;;;;5073601;28;19977;-76
2022/04/05 00:13:13;;;;;;;;;;;7.40;99.90;;;;;;5073925;28;20307;-76
2022/04/05 00:15:40;;;;;;;;;;;7.30;99.90;;;;;;5074582;28;19924;-77
2022/04/05 00:18:07;;;;;;;;;;;7.30;99.90;;;;;;5074096;28;19924;-76
2022/04/05 00:20:34;;;;;;;;;;;7.30;99.90;;;;;;5075067;28;19928;-79
2022/04/05 00:23:01;;;;;;;;;;;7.30;99.90;;;;;;5074137;28;20015;-77
2022/04/05 00:25:27;;;;;;;;;;;7.40;99.90;;;;;;5074119;28;19935;-76
2022/04/05 00:27:54;;;;;;;;;;;7.40;99.90;;;;;;5074031;28;19931;-78
2022/04/05 00:30:22;;;;;;;;;;;7.40;99.90;;;;;;5074221;28;19925;-76
2022/04/05 00:32:49;;;;;;;;;;;7.40;99.90;;;;;;5075135;28;19925;-77
2022/04/05 00:35:16;;;;;;;;;;;7.40;99.90;;;;;;5075021;28;19935;-77
2022/04/05 00:37:43;;;;;;;;;;;7.40;99.90;;;;;;5071608;28;20276;-77
2022/04/05 00:40:10;;;;;;;;;;;7.40;99.90;;;;;;5069675;28;19925;-77
2022/04/05 00:42:37;;;;;;;;;;;7.40;99.90;;;;;;5069731;28;19963;-77
2022/04/05 00:45:04;;;;;;;;;;;7.50;99.90;;;;;;5069604;28;19925;-77
2022/04/05 00:47:33;;;;;;;;;;;7.50;99.90;;;;;;5069500;28;20395;-77
2022/04/05 00:50:00;;;;;;;;;;;7.60;99.90;;;;;;5069884;28;20326;-76
2022/04/05 00:52:27;;;;;;;;;;;7.60;99.90;;;;;;5070197;28;20391;-77
2022/04/05 00:54:55;;;;;;;;;;;7.60;99.90;;;;;;5069749;28;19931;-77
2022/04/05 00:57:23;;;;;;;;;;;7.70;99.90;;;;;;5069889;28;19928;-77
2022/04/05 00:59:50;;;;;;;;;;;7.70;99.90;;;;;;5069183;28;19924;-79
2022/04/05 01:02:18;;;;;;;;;;;7.70;99.90;;;;;;5070390;28;20297;-77
2022/04/05 01:04:47;;;;;;;;;;;7.70;99.90;;;;;;5073511;28;19931;-76
2022/04/05 01:07:15;;;;;;;;;;;7.80;99.90;;;;;;5073393;28;19925;-76
2022/04/05 01:09:42;;;;;;;;;;;7.80;99.90;;;;;;5072560;28;19952;-78
2022/04/05 01:12:10;;;;;;;;;;;7.90;99.90;;;;;;5072746;28;19924;-77
2022/04/05 01:14:37;;;;;;;;;;;7.90;99.90;;;;;;5073144;28;19932;-77
2022/04/05 01:17:04;;;;;;;;;;;7.90;99.90;;;;;;5073396;28;19928;-76
2022/04/05 01:19:31;;;;;;;;;;;8.00;99.90;;;;;;5073316;28;19925;-77
2022/04/05 01:22:00;;;;;;;;;;;7.90;99.90;;;;;;5074052;28;20222;-77
2022/04/05 01:24:28;;;;;;;;;;;8.00;99.90;;;;;;5073506;28;19925;-78
2022/04/05 01:26:56;;;;;;;;;;;8.00;99.90;;;;;;5073743;28;19925;-77
2022/04/05 01:29:24;;;;;;;;;;;8.00;99.90;;;;;;5072859;28;19925;-78
2022/04/05 01:31:51;;;;;;;;;;;8.00;99.90;;;;;;5074058;28;19924;-77
2022/04/05 01:34:20;;;;;;;;;;;8.00;99.90;;;;;;5074025;28;19924;-77
2022/04/05 01:36:50;;;;;;;;;;;8.10;99.90;;;;;;5074524;28;19924;-79
2022/04/05 01:39:17;;;;;;;;;;;8.00;99.90;;;;;;5074087;28;19956;-77
2022/04/05 01:41:46;;;;;;;;;;;8.10;99.90;;;;;;5074560;28;19978;-77
2022/04/05 01:44:14;;;;;;;;;;;8.10;99.90;;;;;;5073947;28;19931;-76
2022/04/05 01:46:41;;;;;;;;;;;8.10;99.90;;;;;;5074469;28;19924;-76
2022/04/05 01:49:08;;;;;;;;;;;8.10;99.90;;;;;;5074015;28;19925;-78
2022/04/05 01:51:37;;;;;;;;;;;8.10;99.90;;;;;;5074226;28;19925;-77
2022/04/05 01:54:05;;;;;;;;;;;8.20;99.90;;;;;;5074573;28;19964;-77
2022/04/05 01:56:32;;;;;;;;;;;8.20;99.90;;;;;;5074941;28;20457;-76
2022/04/05 01:59:00;;;;;;;;;;;8.20;99.90;;;;;;5074658;28;19931;-78
2022/04/05 02:01:27;;;;;;;;;;;8.20;99.90;;;;;;5074661;28;19924;-77
2022/04/05 02:03:54;;;;;;;;;;;8.20;99.90;;;;;;5074884;28;19924;-78
2022/04/05 02:06:21;;;;;;;;;;;8.20;99.90;;;;;;5074685;28;19924;-79
2022/04/05 02:08:47;;;;;;;;;;;8.20;99.90;;;;;;5075005;28;19932;-75
2022/04/05 02:11:14;;;;;;;;;;;8.30;99.90;;;;;;5075476;28;19930;-76
2022/04/05 02:13:44;;;;;;;;;;;8.30;99.90;;;;;;5075324;28;19963;-77
2022/04/05 02:16:13;;;;;;;;;;;8.30;99.90;;;;;;5074091;28;19968;-80
2022/04/05 02:18:41;;;;;;;;;;;8.30;99.90;;;;;;5073605;28;19978;-77
2022/04/05 02:21:08;;;;;;;;;;;8.30;99.90;;;;;;5074221;28;19924;-77
2022/04/05 02:23:35;;;;;;;;;;;8.30;99.90;;;;;;5074292;28;20411;-76
2022/04/05 02:26:10;;;;;;;;;;;8.40;99.90;;;;;;5074770;28;20307;-78
2022/04/05 02:28:42;;;;;;;;;;;8.40;99.90;;;;;;5074138;28;19924;-77
2022/04/05 02:31:14;;;;;;;;;;;8.40;99.90;;;;;;5075185;28;19924;-77
2022/04/05 02:33:42;;;;;;;;;;;;;;;;;;5074595;28;19931;-77
2022/04/05 02:36:15;;;;;;;;;;;8.40;99.90;;;;;;5075803;28;19929;-77
2022/04/05 02:38:43;;;;;;;;;;;8.40;99.90;;;;;;5075004;28;19924;-77
2022/04/05 02:41:10;;;;;;;;;;;8.40;99.90;;;;;;5076180;28;20009;-76
2022/04/05 02:43:38;;;;;;;;;;;8.50;99.90;;;;;;5075818;28;20418;-79
2022/04/05 02:46:08;;;;;;;;;;;8.50;99.90;;;;;;5075116;28;19932;-78
2022/04/05 02:48:42;;;;;;;;;;;8.60;99.90;;;;;;5074963;28;19924;-76
2022/04/05 02:51:11;;;;;;;;;;;8.60;99.90;;;;;;5074237;28;19929;-78
2022/04/05 02:53:38;;;;;;;;;;;8.60;99.90;;;;;;5073792;28;19931;-77
2022/04/05 02:56:07;;;;;;;;;;;8.60;99.90;;;;;;5074067;28;19925;-80
2022/04/05 02:58:35;;;;;;;;;;;8.70;99.90;;;;;;5073355;28;19924;-78
2022/04/05 03:01:03;;;;;;;;;;;8.70;99.90;;;;;;5075023;28;19924;-77
2022/04/05 03:03:30;;;;;;;;;;;8.70;99.90;;;;;;5074856;28;19928;-76
2022/04/05 03:05:59;;;;;;;;;;;8.70;99.90;;;;;;5075005;28;19991;-80
2022/04/05 03:08:27;;;;;;;;;;;8.70;99.90;;;;;;5074911;28;19924;-77
2022/04/05 03:10:55;;;;;;;;;;;8.80;99.90;;;;;;5075848;28;19924;-77
2022/04/05 03:13:24;;;;;;;;;;;8.70;99.90;;;;;;5076273;28;19931;-75
2022/04/05 03:15:52;;;;;;;;;;;8.80;99.90;;;;;;5075490;28;19925;-80
2022/04/05 03:18:20;;;;;;;;;;;8.80;99.90;;;;;;5075882;28;19924;-80
2022/04/05 03:20:47;;;;;;;;;;;8.80;99.90;;;;;;5075605;28;19924;-77
2022/04/05 03:23:16;;;;;;;;;;;8.80;99.90;;;;;;5075663;28;19924;-80
2022/04/05 03:25:42;;;;;;;;;;;8.80;99.90;;;;;;5075881;28;19932;-78
2022/04/05 03:28:10;;;;;;;;;;;8.90;99.90;;;;;;5076982;28;19924;-76
2022/04/05 03:30:37;;;;;;;;;;;8.90;99.90;;;;;;5075414;28;19935;-78
2022/04/05 03:33:06;;;;;;;;;;;8.90;99.90;;;;;;5075951;28;19924;-76
2022/04/05 03:35:34;;;;;;;;;;;8.90;99.90;;;;;;5075940;28;20022;-76
2022/04/05 03:38:02;;;;;;;;;;;8.90;99.90;;;;;;5075924;28;19928;-77
2022/04/05 03:40:31;;;;;;;;;;;8.90;99.90;;;;;;5075525;28;19932;-77
2022/04/05 03:43:00;;;;;;;;;;;9.00;99.90;;;;;;5076957;28;19924;-77
2022/04/05 03:45:28;;;;;;;;;;;9.00;99.90;;;;;;5075519;28;19925;-77
2022/04/05 03:47:55;;;;;;;;;;;9.00;99.90;;;;;;5075900;28;19928;-79
2022/04/05 03:50:23;;;;;;;;;;;9.00;99.90;;;;;;5074140;28;19954;-77
2022/04/05 03:52:50;;;;;;;;;;;9.00;99.90;;;;;;5073580;28;19925;-77
2022/04/05 03:55:26;;;;;;;;;;;9.00;99.90;;;;;;5071085;28;19947;-77
2022/04/05 03:57:55;;;;;;;;;;;9.10;99.90;;;;;;5074655;28;19928;-80
2022/04/05 04:00:24;;;;;;;;;;;9.10;99.90;;;;;;5074564;28;20461;-77
2022/04/05 04:03:04;;;;;;;;;;;9.10;99.90;;;;;;5075055;28;20312;-77
2022/04/05 04:05:31;;;;;;;;;;;9.10;99.90;;;;;;5075183;28;19959;-76
2022/04/05 04:07:58;;;;;;;;;;;9.10;99.90;;;;;;5074797;28;19992;-77
2022/04/05 04:10:28;;;;;;;;;;;9.20;99.90;;;;;;5075033;28;19925;-80
2022/04/05 04:13:00;;;;;;;;;;;9.20;99.90;;;;;;5076353;28;19925;-77
2022/04/05 04:15:32;;;;;;;;;;;9.20;99.90;;;;;;5074912;28;19929;-77
2022/04/05 04:17:59;;;;;;;;;;;9.20;99.90;;;;;;5074421;28;19947;-77
2022/04/05 04:20:27;;;;;;;;;;;9.20;99.90;;;;;;5075620;28;19931;-76
2022/04/05 04:22:54;;;;;;;;;;;9.20;99.90;;;;;;5075267;28;19928;-76
2022/04/05 04:25:21;;;;;;;;;;;9.20;99.90;;;;;;5074922;28;19924;-77
2022/04/05 04:27:50;;;;;;;;;;;9.20;99.90;;;;;;5074609;28;19925;-76
2022/04/05 04:30:18;;;;;;;;;;;9.20;99.90;;;;;;5074354;28;19928;-77
2022/04/05 04:32:45;;;;;;;;;;;9.20;99.90;;;;;;5074340;28;19940;-77
2022/04/05 04:35:12;;;;;;;;;;;9.20;99.90;;;;;;5074501;28;19932;-78
2022/04/05 04:37:39;;;;;;;;;;;9.20;99.90;;;;;;5076040;28;19960;-77
2022/04/05 04:40:06;;;;;;;;;;;9.20;99.90;;;;;;5078316;28;19931;-77
2022/04/05 04:42:33;;;;;;;;;;;9.20;99.90;;;;;;5080580;28;19986;-76
2022/04/05 04:45:00;;;;;;;;;;;9.20;99.90;;;;;;5079221;28;19931;-78
2022/04/05 04:47:28;;;;;;;;;;;9.20;99.90;;;;;;5078806;28;19925;-77
2022/04/05 04:49:55;;;;;;;;;;;9.20;99.90;;;;;;5078613;28;19948;-77
2022/04/05 04:52:22;;;;;;;;;;;9.20;99.90;;;;;;5079187;28;19933;-77
2022/04/05 04:54:50;;;;;;;;;;;9.20;99.90;;;;;;5079703;28;20023;-77
2022/04/05 04:57:17;;;;;;;;;;;9.20;99.90;;;;;;5079894;28;19924;-78
2022/04/05 04:59:44;;;;;;;;;;;9.20;99.90;;;;;;5078308;28;19924;-77
2022/04/05 05:02:11;;;;;;;;;;;9.20;99.90;;;;;;5072887;28;19925;-77
2022/04/05 05:04:39;;;;;;;;;;;9.20;99.90;;;;;;5075144;28;19924;-76
2022/04/05 05:07:06;;;;;;;;;;;9.20;99.90;;;;;;5075027;28;20395;-76
2022/04/05 05:09:33;;;;;;;;;;;9.30;99.90;;;;;;5075119;28;19973;-76
2022/04/05 05:12:00;;;;;;;;;;;9.30;99.90;;;;;;5075516;28;19924;-77
2022/04/05 05:14:27;;;;;;;;;;;9.30;99.90;;;;;;5075365;28;19925;-77
2022/04/05 05:16:54;;;;;;;;;;;9.30;99.90;;;;;;5075564;28;20016;-78
2022/04/05 05:19:20;;;;;;;;;;;9.30;99.90;;;;;;5075057;28;20403;-76
2022/04/05 05:21:49;;;;;;;;;;;9.30;99.90;;;;;;5075423;28;19932;-76
2022/04/05 05:24:16;;;;;;;;;;;9.30;99.90;;;;;;5074838;28;20395;-76
2022/04/05 05:26:42;;;;;;;;;;;9.30;99.90;;;;;;5074835;28;19933;-78
2022/04/05 05:29:09;;;;;;;;;;;9.40;99.90;;;;;;5074174;28;20307;-76
2022/04/05 05:31:36;;;;;;;;;;;9.40;99.90;;;;;;5075023;28;19925;-75
2022/04/05 05:34:03;;;;;;;;;;;9.40;99.90;;;;;;5073903;28;19928;-78
2022/04/05 05:36:30;;;;;;;;;;;9.40;99.90;;;;;;5073225;28;19925;-77
2022/04/05 05:38:58;;;;;;;;;;;9.40;99.90;;;;;;5068761;28;19925;-79
2022/04/05 05:41:24;;;;;;;;;;;9.40;99.90;;;;;;5071181;28;19924;-81
2022/04/05 05:43:51;;;;;;;;;;;9.30;99.90;;;;;;5071242;28;19934;-79
2022/04/05 05:46:18;;;;;;;;;;;9.40;99.90;;;;;;5075622;28;19931;-77
2022/04/05 05:48:45;;;;;;;;;;;9.40;99.90;;;;;;5073898;28;19928;-76
2022/04/05 05:51:12;;;;;;;;;;;9.40;99.90;;;;;;5076310;28;19928;-76
2022/04/05 05:53:39;;;;;;;;;;;9.40;99.90;;;;;;5075794;28;19939;-77
2022/04/05 05:56:07;;;;;;;;;;;9.40;99.90;;;;;;5076509;28;19928;-76
2022/04/05 05:58:34;;;;;;;;;;;9.40;99.90;;;;;;5075431;28;19925;-74
2022/04/05 06:01:01;;;;;;;;;;;9.40;99.90;;;;;;5075416;28;19925;-76
2022/04/05 06:03:28;;;;;;;;;;;9.40;99.90;;;;;;5077017;28;19931;-78
2022/04/05 06:05:55;;;;;;;;;;;9.40;99.90;;;;;;5076842;28;19925;-76
2022/04/05 06:08:22;;;;;;;;;;;9.50;99.90;;;;;;5076309;28;19934;-76
2022/04/05 06:10:48;;;;;;;;;;;9.50;99.90;;;;;;5076287;28;19931;-76
2022/04/05 06:13:17;;;;;;;;;;;9.50;99.90;;;;;;5075446;28;19925;-76
2022/04/05 06:15:44;;;;;;;;;;;9.50;99.90;;;;;;5073929;28;19933;-76
2022/04/05 06:18:10;;;;;;;;;;;9.50;99.90;;;;;;5067353;28;19928;-78
2022/04/05 06:20:37;;;;;;;;;;;9.50;99.90;;;;;;5074984;28;19924;-76
2022/04/05 06:23:05;;;;;;;;;;;9.50;99.90;;;;;;5076016;28;19931;-77
2022/04/05 06:25:34;;;;;;;;;;;9.50;99.90;;;;;;5077231;28;19924;-77
2022/04/05 06:28:02;;;;;;;;;;;9.40;99.90;;;;;;5073540;28;19925;-77
2022/04/05 06:30:32;;;;;;;;;;;9.40;99.90;;;;;;5074287;28;19968;-76
2022/04/05 06:33:06;;;;;;;;;;;9.40;99.90;;;;;;5075009;28;20027;-77
2022/04/05 06:35:34;;;;;;;;;;;9.40;99.90;;;;;;5072851;28;19924;-76
2022/04/05 06:38:00;;;;;;;;;;;9.40;99.90;;;;;;5073892;28;19991;-77
2022/04/05 06:40:27;;;;;;;;;;;9.40;99.90;;;;;;5073363;28;19925;-77
2022/04/05 06:42:54;;;;;;;;;;;9.50;99.90;;;;;;5074023;28;19925;-77
2022/04/05 06:45:22;;;;;;;;;;;9.50;99.90;;;;;;5074700;28;19931;-76
2022/04/05 06:47:50;;;;;;;;;;;9.50;99.90;;;;;;5073076;28;20299;-75
2022/04/05 06:50:20;;;;;;;;;;;9.50;99.90;;;;;;5071065;28;19924;-76
2022/04/05 06:52:47;;;;;;;;;;;9.50;99.90;;;;;;5071977;28;20388;-80
2022/04/05 06:55:14;;;;;;;;;;;9.50;99.90;;;;;;5074875;28;19928;-79
2022/04/05 06:57:41;;;;;;;;;;;9.50;99.90;;;;;;5076319;28;19924;-76
2022/04/05 07:00:09;;;;;;;;;;;9.50;99.90;;;;;;5075812;28;19924;-77
2022/04/05 07:02:36;;;;;;;;;;;9.50;99.90;;;;;;5072943;28;20354;-77
2022/04/05 07:05:05;;;;;;;;;;;9.60;99.90;;;;;;5071148;28;19925;-77
2022/04/05 07:07:32;;;;;;;;;;;9.60;99.90;;;;;;5073138;28;19924;-77
2022/04/05 07:09:59;;;;;;;;;;;9.60;99.90;;;;;;5073453;28;19928;-77
2022/04/05 07:12:26;;;;;;;;;;;9.60;99.90;;;;;;5073065;28;19925;-79
2022/04/05 07:14:52;;;;;;;;;;;9.60;99.90;;;;;;5071004;28;19931;-77
2022/04/05 07:17:20;;;;;;;;;;;9.60;99.90;;;;;;5073930;28;19925;-78
2022/04/05 07:19:46;;;;;;;;;;;9.60;99.90;;;;;;5072539;28;19932;-76
2022/04/05 07:22:15;;;;;;;;;;;9.60;99.90;;;;;;5071983;28;19936;-77
2022/04/05 07:24:41;;;;;;;;;;;9.60;99.90;;;;;;5071902;28;19925;-78
2022/04/05 07:27:08;;;;;;;;;;;9.60;99.90;;;;;;5072148;28;20372;-77
2022/04/05 07:29:35;;;;;;;;;;;9.60;99.90;;;;;;5072739;28;19955;-77
2022/04/05 07:32:02;;;;;;;;;;;9.50;99.90;;;;;;5072026;28;19931;-79
2022/04/05 07:34:29;;;;;;;;;;;9.60;99.90;;;;;;5075049;28;19924;-77
2022/04/05 07:36:56;;;;;;;;;;;9.60;99.90;;;;;;5073526;28;20304;-78
2022/04/05 07:39:24;;;;;;;;;;;9.60;99.90;;;;;;5073297;28;19924;-77
2022/04/05 07:41:51;;;;;;;;;;;9.60;99.90;;;;;;5073619;28;19932;-78
2022/04/05 07:44:18;;;;;;;;;;;9.60;99.90;;;;;;5071544;28;19924;-78
2022/04/05 07:46:45;;;;;;;;;;;9.60;99.90;;;;;;5086537;28;19928;-74
2022/04/05 07:49:12;;;;;;;;;;;9.60;99.90;;;;;;5072902;28;19929;-77
2022/04/05 07:51:39;;;;;;;;;;;9.60;99.90;;;;;;5074399;28;20368;-78
2022/04/05 07:54:06;;;;;;;;;;;9.60;99.90;;;;;;5075995;28;19924;-77
2022/04/05 07:56:34;;;;;;;;;;;9.60;99.90;;;;;;5076741;28;19980;-78
2022/04/05 07:59:02;;;;;;;;;;;9.70;99.90;;;;;;5075372;28;19924;-80
2022/04/05 08:01:29;;;;;;;;;;;9.70;99.90;;;;;;5077366;28;19933;-77
2022/04/05 08:03:56;;;;;;;;;;;9.80;99.90;;;;;;5074933;28;19946;-79
2022/04/05 08:06:24;;;;;;;;;;;9.80;99.90;;;;;;5074986;28;19924;-77
2022/04/05 08:08:50;;;;;;;;;;;9.80;99.90;;;;;;5076118;28;19924;-75
2022/04/05 08:11:17;;;;;;;;;;;9.80;99.90;;;;;;5078165;28;19936;-77
2022/04/05 08:13:45;;;;;;;;;;;9.80;99.90;;;;;;5076653;28;19935;-77
2022/04/05 08:16:12;;;;;;;;;;;9.80;99.90;;;;;;5076805;28;19936;-76
2022/04/05 08:18:39;;;;;;;;;;;9.90;99.90;;;;;;5072611;28;19929;-77
2022/04/05 08:21:06;;;;;;;;;;;9.90;99.90;;;;;;5077931;28;19928;-76
2022/04/05 08:23:32;;;;;;;;;;;9.90;99.90;;;;;;5077017;28;19925;-77
2022/04/05 08:25:59;;;;;;;;;;;10.00;99.90;;;;;;5077313;28;19924;-77
2022/04/05 08:28:27;;;;;;;;;;;10.00;99.90;;;;;;5076420;28;20387;-76
2022/04/05 08:30:55;;;;;;;;;;;10.10;99.90;;;;;;5076673;28;19924;-76
2022/04/05 08:33:22;;;;;;;;;;;10.10;99.90;;;;;;5072460;28;19932;-72
2022/04/05 08:35:49;;;;;;;;;;;10.20;99.90;;;;;;5065569;28;19925;-74
2022/04/05 08:38:16;;;;;;;;;;;10.20;99.90;;;;;;5070973;28;19924;-75
2022/04/05 08:40:43;;;;;;;;;;;10.30;99.90;;;;;;5070798;28;19932;-71
2022/04/05 08:43:10;;;;;;;;;;;10.30;99.90;;;;;;5071360;28;20023;-72
2022/04/05 08:45:37;;;;;;;;;;;10.30;99.90;;;;;;5071608;28;20402;-73
2022/04/05 08:48:09;;;;;;;;;;;10.40;99.90;;;;;;5070228;28;19924;-72
2022/04/05 08:50:36;;;;;;;;;;;10.40;99.90;;;;;;5070388;28;19929;-73
2022/04/05 08:53:03;;;;;;;;;;;10.40;99.90;;;;;;5073638;28;19924;-76
2022/04/05 08:55:30;;;;;;;;;;;10.40;99.90;;;;;;5072148;28;19947;-77
2022/04/05 08:57:57;;;;;;;;;;;10.40;99.90;;;;;;5071797;28;19948;-75
2022/04/05 09:00:24;;;;;;;;;;;10.40;99.90;;;;;;5071053;28;19924;-77
2022/04/05 09:02:55;;;;;;;;;;;10.30;99.90;;;;;;5068097;28;19932;-76
2022/04/05 09:05:30;;;;;;;;;;;10.30;99.90;;;;;;5069991;28;19929;-76
2022/04/05 09:08:12;;;;;;;;;;;10.30;99.90;;;;;;5076830;28;19924;-76
2022/04/05 09:10:39;;;;;;;;;;;10.30;99.90;;;;;;5074195;28;19929;-78
2022/04/05 09:13:06;;;;;;;;;;;10.20;99.90;;;;;;5074575;28;19932;-77
2022/04/05 09:15:35;;;;;;;;;;;10.20;99.90;;;;;;5074289;28;19924;-79
2022/04/05 09:18:02;;;;;;;;;;;10.20;99.90;;;;;;5074385;28;19931;-75
2022/04/05 09:20:31;;;;;;;;;;;10.20;99.90;;;;;;5080121;28;19946;-77
2022/04/05 09:23:01;;;;;;;;;;;10.20;99.90;;;;;;5080121;28;19932;-77
2022/04/05 09:25:28;;;;;;;;;;;10.10;99.90;;;;;;5083628;28;19971;-79
2022/04/05 09:27:55;;;;;;;;;;;10.10;99.90;;;;;;5082817;28;19924;-78
2022/04/05 09:30:24;;;;;;;;;;;10.00;99.90;;;;;;5083446;28;19935;-78
2022/04/05 09:32:52;;;;;;;;;;;10.10;99.90;;;;;;5083120;28;19925;-75
2022/04/05 09:35:20;;;;;;;;;;;10.00;99.90;;;;;;5081835;28;20352;-78
2022/04/05 09:37:48;;;;;;;;;;;10.00;99.90;;;;;;5080969;28;20020;-77
2022/04/05 09:40:16;;;;;;;;;;;10.00;99.90;;;;;;5080165;22;19929;-79
2022/04/05 09:42:58;;;;;;;;;;;10.10;99.90;;;;;;5055554;28;20007;-77
2022/04/05 09:45:39;;;;;;;;;;;10.10;99.90;;;;;;5055365;28;19924;-77
2022/04/05 09:48:08;;;;;;;;;;;10.10;99.90;;;;;;5035723;28;20381;-77
2022/04/05 09:51:04;;;;;;;;;;;10.20;99.90;;;;;;5054677;28;19929;-77
2022/04/05 09:53:50;;;;;;;;;;;10.20;99.90;;;;;;5055467;28;19925;-78
2022/04/05 09:56:18;;;;;;;;;;;10.30;99.90;;;;;;5065065;28;19925;-77
2022/04/05 09:58:46;;;;;;;;;;;10.30;99.90;;;;;;5075054;28;19974;-77
2022/04/05 10:01:13;;;;;;;;;;;10.40;99.90;;;;;;5074862;28;19955;-78
2022/04/05 10:03:41;;;;;;;;;;;10.50;99.90;;;;;;5074915;28;20354;-77
2022/04/05 10:06:08;;;;;;;;;;;10.60;99.90;;;;;;5074054;28;20268;-78
2022/04/05 10:08:35;;;;;;;;;;;10.60;99.90;;;;;;5074349;28;19924;-78
2022/04/05 10:11:04;;;;;;;;;;;10.70;99.90;;;;;;5074520;28;20075;-77
2022/04/05 10:13:31;;;;;;;;;;;10.80;99.90;;;;;;5106885;28;19935;-78
2022/04/05 10:16:00;;;;;;;;;;;10.90;99.90;;;;;;5108257;28;19932;-79
2022/04/05 10:18:32;;;;;;;;;;;10.90;99.90;;;;;;5108335;28;19924;-78
2022/04/05 10:20:59;;;;;;;;;;;11.10;99.90;;;;;;5105130;28;19924;-79
2022/04/05 10:23:26;;;;;;;;;;;11.30;99.90;;;;;;5073345;28;19959;-79
2022/04/05 10:26:04;;;;;;;;;;;11.30;99.90;;;;;;5074571;28;19925;-78
2022/04/05 10:28:44;;;;;;;;;;;11.40;99.90;;;;;;5072626;28;19928;-79
2022/04/05 10:31:13;;;;;;;;;;;11.40;99.90;;;;;;5071475;28;19967;-80
2022/04/05 10:33:46;;;;;;;;;;;11.50;99.90;;;;;;5074475;28;19979;-80
2022/04/05 10:36:13;;;;;;;;;;;11.60;99.90;;;;;;5109101;28;19935;-79
2022/04/05 10:38:40;;;;;;;;;;;11.60;99.90;;;;;;5108545;28;19940;-79
2022/04/05 10:41:12;;;;;;;;;;;11.60;99.90;;;;;;5108491;28;20315;-79
2022/04/05 10:43:40;;;;;;;;;;;11.60;99.90;;;;;;5108587;28;19924;-80
2022/04/05 10:46:08;;;;;;;;;;;11.70;99.90;;;;;;5074079;28;19932;-79
2022/04/05 10:48:35;;;;;;;;;;;11.70;99.90;;;;;;5074591;28;19929;-80
2022/04/05 10:51:11;;;;;;;;;;;11.70;99.90;;;;;;5074116;28;19925;-78
2022/04/05 10:53:41;;;;;;;;;;;11.70;99.90;;;;;;5073540;28;19953;-80
2022/04/05 10:56:14;;;;;;;;;;;11.70;99.90;;;;;;5073315;28;19925;-78
2022/04/05 10:59:03;;;;;;;;;;;11.70;99.90;;;;;;5074665;28;19932;-79
2022/04/05 11:01:39;;;;;;;;;;;11.70;99.90;;;;;;5108048;28;19924;-78
2022/04/05 11:04:28;;;;;;;;;;;11.60;99.90;;;;;;5107922;28;19924;-79
2022/04/05 11:07:14;;;;;;;;;;;11.60;99.90;;;;;;5074883;28;19996;-80
2022/04/05 11:09:42;;;;;;;;;;;11.60;99.90;;;;;;5107882;28;19929;-78
2022/04/05 11:12:10;;;;;;;;;;;11.60;99.90;;;;;;5108499;28;19929;-79
2022/04/05 11:14:40;;;;;;;;;;;11.70;99.90;;;;;;5074644;28;19924;-78
2022/04/05 11:17:08;;;;;;;;;;;11.70;99.90;;;;;;5108421;28;19924;-78
2022/04/05 11:19:36;;;;;;;;;;;11.70;99.90;;;;;;5107501;28;19931;-78
2022/04/05 11:22:04;;;;;;;;;;;11.70;99.90;;;;;;5107319;28;20380;-78
2022/04/05 11:24:49;;;;;;;;;;;11.70;99.90;;;;;;5107697;28;19928;-79
2022/04/05 11:27:26;;;;;;;;;;;11.70;99.90;;;;;;5075113;28;19932;-80
2022/04/05 11:30:07;;;;;;;;;;;11.70;99.90;;;;;;5070696;28;19928;-79
2022/04/05 11:32:38;;;;;;;;;;;11.70;99.90;;;;;;5053032;28;20127;-78
2022/04/05 11:35:05;;;;;;;;;;;11.80;99.90;;;;;;5073264;28;19940;-81
2022/04/05 11:37:33;;;;;;;;;;;11.80;99.90;;;;;;5074573;28;19924;-80
2022/04/05 11:40:05;;;;;;;;;;;12.00;99.90;;;;;;5074129;28;19925;-79
2022/04/05 11:42:35;;;;;;;;;;;12.20;99.90;;;;;;5074889;28;19925;-79
2022/04/05 11:45:02;;;;;;;;;;;12.50;99.90;;;;;;5073379;28;20391;-78
2022/04/05 11:47:29;;;;;;;;;;;12.70;99.90;;;;;;5074088;28;19928;-79
2022/04/05 11:49:58;;;;;;;;;;;12.90;99.90;;;;;;5106489;28;19929;-81
2022/04/05 11:52:28;;;;;;;;;;;12.80;99.90;;;;;;5073253;28;19924;-80
2022/04/05 11:57:45;;;;;;;;;;;12.60;99.90;;;;;;5014885;28;19921;-80
2022/04/05 12:00:12;;;;;;;;;;;12.60;99.90;;;;;;5069038;28;19928;-76
2022/04/05 12:02:38;;;;;;;;;;;12.50;99.90;;;;;;5105838;28;20024;-77
2022/04/05 12:05:07;;;;;;;;;;;12.30;99.90;;;;;;5067598;28;19924;-79
2022/04/05 12:07:35;;;;;;;;;;;12.20;99.90;;;;;;5070437;28;19933;-79
2022/04/05 12:10:02;;;;;;;;;;;12.10;99.90;;;;;;5067990;28;20470;-76
2022/04/05 12:12:29;;;;;;;;;;;11.90;99.90;;;;;;5071425;28;19931;-79
2022/04/05 12:14:56;;;;;;;;;;;11.90;99.90;;;;;;5105513;28;20414;-78
2022/04/05 12:17:23;;;;;;;;;;;11.80;99.90;;;;;;5071131;28;19925;-78
2022/04/05 12:19:52;;;;;;;;;;;11.70;99.90;;;;;;5103536;28;19925;-77
2022/04/05 12:22:21;;;;;;;;;;;11.60;99.90;;;;;;5106164;28;19924;-78
2022/04/05 12:24:50;;;;;;;;;;;11.50;99.90;;;;;;5105624;28;19928;-78
2022/04/05 12:27:19;;;;;;;;;;;11.40;99.90;;;;;;5105688;28;20273;-77
2022/04/05 12:29:46;;;;;;;;;;;11.40;99.90;;;;;;5104381;28;19924;-78
2022/04/05 12:32:13;;;;;;;;;;;11.60;99.90;;;;;;5071764;28;19964;-78
2022/04/05 12:34:41;;;;;;;;;;;11.70;99.90;;;;;;5070991;28;20398;-78
2022/04/05 12:37:12;;;;;;;;;;;11.70;99.90;;;;;;5071591;28;19928;-78
2022/04/05 12:39:43;;;;;;;;;;;11.70;99.90;;;;;;5069929;28;19951;-78
2022/04/05 12:42:11;;;;;;;;;;;11.60;99.90;;;;;;5073081;28;19967;-77
2022/04/05 12:44:38;;;;;;;;;;;11.50;99.90;;;;;;5073232;28;20380;-76
2022/04/05 12:47:07;;;;;;;;;;;11.40;99.90;;;;;;5071573;28;20303;-78
2022/04/05 12:49:35;;;;;;;;;;;11.50;99.90;;;;;;5068002;28;19929;-78
2022/04/05 12:52:09;;;;;;;;;;;11.40;99.90;;;;;;5080241;28;20408;-78
2022/04/05 12:54:37;;;;;;;;;;;11.40;99.90;;;;;;5105435;28;19932;-78
2022/04/05 12:57:19;;;;;;;;;;;11.40;99.90;;;;;;5069756;28;20014;-79
2022/04/05 12:59:47;;;;;;;;;;;11.40;99.90;;;;;;5074706;28;19925;-77
2022/04/05 13:02:18;;;;;;;;;;;11.50;99.90;;;;;;5076013;28;20039;-77
2022/04/05 13:04:45;;;;;;;;;;;11.60;99.90;;;;;;5075636;28;19938;-78
2022/04/05 13:07:12;;;;;;;;;;;11.80;99.90;;;;;;5110559;28;19931;-76
2022/04/05 13:09:38;;;;;;;;;;;11.80;99.90;;;;;;5077910;28;19928;-77
2022/04/05 13:12:09;;;;;;;;;;;11.80;99.90;;;;;;5063519;28;20012;-77
2022/04/05 13:14:38;;;;;;;;;;;11.90;99.90;;;;;;5066750;28;19932;-77
2022/04/05 13:17:05;;;;;;;;;;;11.90;99.90;;;;;;5110766;28;19972;-77
2022/04/05 13:19:32;;;;;;;;;;;11.90;99.90;;;;;;5069258;28;19925;-78
2022/04/05 13:21:59;;;;;;;;;;;12.00;99.90;;;;;;5068739;28;19932;-78
2022/04/05 13:24:28;;;;;;;;;;;12.20;99.90;;;;;;5070442;28;19924;-79
2022/04/05 13:26:55;;;;;;;;;;;12.20;99.90;;;;;;5072276;28;19955;-79
2022/04/05 13:29:24;;;;;;;;;;;12.20;99.90;;;;;;5073067;28;19932;-79
2022/04/05 13:31:55;;;;;;;;;;;12.30;99.90;;;;;;5077676;28;19924;-79
2022/04/05 13:34:23;;;;;;;;;;;12.40;99.90;;;;;;5106344;28;19924;-79
2022/04/05 13:36:50;;;;;;;;;;;12.50;99.90;;;;;;5074006;28;20419;-78
2022/04/05 13:39:17;;;;;;;;;;;12.60;99.90;;;;;;5073291;28;20019;-78
2022/04/05 13:41:44;;;;;;;;;;;12.70;99.90;;;;;;5070741;28;19964;-77
2022/04/05 13:44:12;;;;;;;;;;;12.60;99.90;;;;;;5065456;28;20293;-79
2022/04/05 13:46:39;;;;;;;;;;;12.50;99.90;;;;;;5070304;28;19947;-77
2022/04/05 13:49:08;;;;;;;;;;;12.70;99.90;;;;;;5086113;28;19951;-78
2022/04/05 13:51:34;;;;;;;;;;;12.70;99.90;;;;;;5067187;28;20006;-77
2022/04/05 13:54:01;;;;;;;;;;;12.70;99.90;;;;;;5089573;28;19925;-77
2022/04/05 13:56:28;;;;;;;;;;;12.60;99.90;;;;;;5066805;28;19928;-77
2022/04/05 13:58:56;;;;;;;;;;;12.50;99.90;;;;;;5087461;28;19924;-77
2022/04/05 14:01:23;;;;;;;;;;;12.50;99.90;;;;;;5075921;28;19968;-78
2022/04/05 14:03:50;;;;;;;;;;;12.40;99.90;;;;;;5071016;28;19928;-77
2022/04/05 14:06:19;;;;;;;;;;;12.40;99.90;;;;;;5068939;28;19925;-78
2022/04/05 14:08:46;;;;;;;;;;;12.30;99.90;;;;;;5070951;28;19932;-78
2022/04/05 14:11:13;;;;;;;;;;;12.20;99.90;;;;;;5077937;28;19925;-78
2022/04/05 14:13:40;;;;;;;;;;;12.10;99.90;;;;;;5075172;28;19947;-78
2022/04/05 14:16:08;;;;;;;;;;;12.10;99.90;;;;;;5065812;28;19928;-78
2022/04/05 14:18:35;;;;;;;;;;;12.10;99.90;;;;;;5111419;28;19931;-78
2022/04/05 14:21:02;;;;;;;;;;;12.10;99.90;;;;;;5069066;28;19933;-78
2022/04/05 14:23:30;;;;;;;;;;;12.10;99.90;;;;;;5073984;28;19931;-76
2022/04/05 14:25:57;;;;;;;;;;;12.20;99.90;;;;;;5061861;28;19924;-77
2022/04/05 14:28:24;;;;;;;;;;;12.10;99.90;;;;;;5066202;28;19924;-79
2022/04/05 14:30:51;;;;;;;;;;;12.10;99.90;;;;;;5070791;28;19940;-78
2022/04/05 14:33:18;;;;;;;;;;;12.10;99.90;;;;;;5087156;28;19931;-79
2022/04/05 14:35:45;;;;;;;;;;;12.10;99.90;;;;;;5066239;28;19932;-76